Time;durP1;ratioP1;P1;durP2;ratioP2;P2;SDS_P1;SDS_P2;PMS_P1;PMS_P2;Temp;Humidity;BMP_temperature;BMP_pressure;BME280_temperature;BME280_humidity;BME280_pressure;Samples;Min_cycle;Max_cycle;Signal;HPM_P1;HPM_P2
2022/12/18 00:01:31;;;;;;;64.13;24.45;;;;;;;-5.91;98.71;102873.09;5131049;27;20039;-74
2022/12/18 00:03:57;;;;;;;59.17;25.50;;;;;;;-5.92;99.20;102867.81;5153355;27;20381;-75
2022/12/18 00:06:24;;;;;;;80.88;28.30;;;;;;;-5.93;99.33;102863.44;5153099;27;20029;-75
2022/12/18 00:08:50;;;;;;;57.47;25.40;;;;;;;-5.95;99.11;102854.72;5153326;27;20035;-74
2022/12/18 00:11:21;;;;;;;57.92;24.58;;;;;;;-5.97;98.88;102866.59;5134796;27;20355;-74
2022/12/18 00:13:47;;;;;;;65.72;22.95;;;;;;;-6.02;99.07;102868.81;5153292;27;20030;-74
2022/12/18 00:16:15;;;;;;;54.42;23.40;;;;;;;-6.09;99.07;102857.09;5132782;27;20017;-74
2022/12/18 00:18:41;;;;;;;49.53;23.48;;;;;;;-6.11;99.49;102843.22;5151538;27;20026;-74
2022/12/18 00:21:09;;;;;;;51.55;20.73;;;;;;;-6.15;99.83;102832.53;5134487;27;20385;-74
2022/12/18 00:23:37;;;;;;;46.83;22.40;;;;;;;-6.20;99.95;102833.84;5128150;27;20046;-74
2022/12/18 00:26:06;;;;;;;56.03;22.80;;;;;;;-6.23;99.95;102833.59;5152791;27;20525;-74
2022/12/18 00:28:32;;;;;;;57.70;23.10;;;;;;;-6.24;99.66;102844.69;5134397;27;20026;-74
2022/12/18 00:31:05;;;;;;;60.67;23.50;;;;;;;-6.28;100.00;102838.38;5117176;27;20042;-74
2022/12/18 00:33:30;;;;;;;55.03;23.30;;;;;;;-6.31;100.00;102835.56;5143577;27;20035;-74
2022/12/18 00:36:09;;;;;;;46.00;21.05;;;;;;;-6.31;100.00;102831.31;5136458;27;20035;-75
2022/12/18 00:38:34;;;;;;;53.50;21.67;;;;;;;-6.33;100.00;102824.22;5132721;28;20029;-74
2022/12/18 00:41:00;;;;;;;51.38;22.98;;;;;;;-6.34;99.97;102825.91;5100485;27;20031;-79
2022/12/18 00:43:25;;;;;;;48.83;21.38;;;;;;;-6.36;99.93;102840.38;5129137;27;20019;-79
2022/12/18 00:45:52;;;;;;;53.45;23.80;;;;;;;-6.38;99.44;102838.44;5137015;27;20034;-74
2022/12/18 00:48:17;;;;;;;61.88;23.85;;;;;;;-6.41;99.39;102825.31;5146370;27;20049;-74
2022/12/18 00:50:43;;;;;;;46.50;21.60;;;;;;;-6.41;99.52;102825.31;5129651;27;20035;-74
2022/12/18 00:53:09;;;;;;;50.30;21.88;;;;;;;-6.44;99.09;102818.25;5127779;27;20476;-74
2022/12/18 00:55:34;;;;;;;50.03;22.92;;;;;;;-6.47;99.16;102820.59;5131954;27;20031;-74
2022/12/18 00:57:59;;;;;;;48.67;21.80;;;;;;;-6.54;98.72;102811.47;5145901;27;20023;-74
2022/12/18 01:00:25;;;;;;;47.80;22.27;;;;;;;-6.53;98.93;102817.50;5125924;27;20031;-74
2022/12/18 01:02:50;;;;;;;53.95;23.80;;;;;;;-6.53;98.85;102823.59;5149971;27;20114;-75
2022/12/18 01:05:16;;;;;;;47.35;20.70;;;;;;;-6.58;99.38;102819.72;5136076;27;20140;-74
2022/12/18 01:07:42;;;;;;;54.33;23.15;;;;;;;-6.57;98.86;102829.28;5141563;27;20039;-74
2022/12/18 01:10:10;;;;;;;49.28;22.63;;;;;;;-6.56;99.23;102836.22;5141270;27;20474;-74
2022/12/18 01:12:35;;;;;;;46.22;19.35;;;;;;;-6.58;99.58;102849.75;5124758;27;20435;-78
2022/12/18 01:15:01;;;;;;;44.03;19.67;;;;;;;-6.56;99.43;102858.50;5129538;27;20023;-79
2022/12/18 01:17:27;;;;;;;49.70;19.00;;;;;;;-6.59;99.18;102856.59;5136181;27;20482;-79
2022/12/18 01:19:52;;;;;;;46.13;22.33;;;;;;;-6.61;99.45;102850.41;5122549;27;20031;-79
2022/12/18 01:22:17;;;;;;;49.00;22.50;;;;;;;-6.61;99.12;102857.25;5127221;27;20027;-79
2022/12/18 01:24:43;;;;;;;41.85;19.15;;;;;;;-6.61;99.33;102849.53;5141651;27;20517;-79
2022/12/18 01:27:09;;;;;;;45.35;21.35;;;;;;;-6.62;99.27;102848.63;5141715;27;20049;-78
2022/12/18 01:29:34;;;;;;;34.40;17.60;;;;;;;-6.63;99.37;102845.91;5115658;27;20058;-79
2022/12/18 01:32:00;;;;;;;40.58;19.60;;;;;;;-6.67;99.38;102856.78;5117691;27;20474;-79
2022/12/18 01:34:25;;;;;;;44.15;20.20;;;;;;;-6.70;99.22;102849.66;5138100;27;20081;-79
2022/12/18 01:36:52;;;;;;;43.20;20.88;;;;;;;-6.71;99.47;102838.47;5136166;27;20037;-78
2022/12/18 01:39:18;;;;;;;44.90;19.58;;;;;;;-6.71;99.74;102833.31;5120261;27;20501;-79
2022/12/18 01:44:50;;;;;;;50.75;21.10;;;;;;;-6.70;99.89;102831.63;5151754;27;20390;-78
2022/12/18 01:47:21;;;;;;;44.30;19.75;;;;;;;-6.73;99.90;102831.38;5136831;27;20435;-78
2022/12/18 01:49:47;;;;;;;41.35;19.55;;;;;;;-6.73;99.92;102832.28;5150992;27;20035;-79
2022/12/18 01:52:13;;;;;;;35.55;16.98;;;;;;;-6.75;100.00;102833.88;5136646;27;20050;-79
2022/12/18 01:54:39;;;;;;;44.40;19.48;;;;;;;-6.74;99.72;102847.66;5155457;27;20034;-78
2022/12/18 01:57:04;;;;;;;46.50;21.63;;;;;;;-6.77;99.98;102840.56;5151737;27;20540;-79
2022/12/18 01:59:33;;;;;;;45.92;19.60;;;;;;;-6.79;99.21;102838.66;5102866;27;20409;-79
2022/12/18 02:01:59;;;;;;;41.20;19.38;;;;;;;-6.82;99.70;102847.03;5128289;27;20022;-79
2022/12/18 02:04:26;;;;;;;40.92;20.20;;;;;;;-6.85;99.35;102835.56;5134792;27;20358;-79
2022/12/18 02:07:07;;;;;;;43.65;19.38;;;;;;;-6.91;99.07;102838.56;5132419;27;20393;-79
2022/12/18 02:09:44;;;;;;;49.40;19.95;;;;;;;-6.91;99.59;102838.56;5123004;27;20073;-79
2022/12/18 02:12:10;;;;;;;43.78;20.00;;;;;;;-6.89;99.13;102833.53;5151295;27;20027;-79
2022/12/18 02:14:48;;;;;;;41.20;18.88;;;;;;;-6.91;99.28;102833.41;5118599;27;20461;-79
2022/12/18 02:17:21;;;;;;;40.30;19.38;;;;;;;-6.92;99.37;102822.19;5127870;27;20064;-79
2022/12/18 02:20:05;;;;;;;37.47;17.77;;;;;;;-6.93;99.43;102822.06;5129587;27;20038;-79
2022/12/18 02:22:53;;;;;;;37.45;17.83;;;;;;;-6.95;99.40;102823.63;5134931;27;20035;-79
2022/12/18 02:25:56;;;;;;;38.33;18.25;;;;;;;-6.93;99.24;102824.66;5147969;27;20105;-79
2022/12/18 02:28:28;;;;;;;42.88;19.05;;;;;;;-6.95;99.33;102826.19;5133849;27;20109;-79
2022/12/18 02:31:01;;;;;;;39.53;18.33;;;;;;;-6.97;99.09;102836.38;5136135;27;20091;-79
2022/12/18 02:33:30;;;;;;;44.28;20.75;;;;;;;-6.98;99.59;102833.69;5133204;27;20538;-79
2022/12/18 02:35:58;;;;;;;38.55;18.27;;;;;;;-7.00;99.23;102832.66;5133852;27;20213;-79
2022/12/18 02:38:25;;;;;;;41.78;18.15;;;;;;;-7.04;98.95;102833.19;5134205;27;20110;-79
2022/12/18 02:40:53;;;;;;;40.00;17.58;;;;;;;-7.03;98.73;102835.88;5115834;27;20076;-79
2022/12/18 02:43:19;;;;;;;40.58;18.65;;;;;;;-7.03;98.68;102828.16;5127755;27;20054;-79
2022/12/18 02:45:50;;;;;;;34.53;16.70;;;;;;;-7.06;98.80;102821.88;5118123;27;20477;-79
2022/12/18 02:48:19;;;;;;;35.72;18.08;;;;;;;-7.09;98.78;102813.91;5135309;27;20422;-79
2022/12/18 02:50:58;;;;;;;42.05;19.67;;;;;;;-7.10;98.65;102812.06;5127264;27;20050;-79
2022/12/18 02:53:37;;;;;;;41.60;18.92;;;;;;;-7.13;98.33;102807.59;5134315;27;20026;-79
2022/12/18 02:56:05;;;;;;;35.47;18.02;;;;;;;-7.15;98.14;102810.00;5134390;27;20381;-79
2022/12/18 02:58:59;;;;;;;38.58;18.65;;;;;;;-7.15;98.15;102811.69;5118773;27;20018;-79
2022/12/18 03:01:41;;;;;;;35.63;16.17;;;;;;;-7.18;98.00;102811.47;5118875;27;20042;-79
2022/12/18 03:04:26;;;;;;;37.28;17.75;;;;;;;-7.21;97.79;102804.38;5132443;27;20470;-79
2022/12/18 03:06:57;;;;;;;35.78;17.42;;;;;;;-7.21;97.62;102812.09;5133781;27;20398;-79
2022/12/18 03:09:46;;;;;;;37.20;16.98;;;;;;;-7.26;97.84;102800.53;5133837;27;20030;-79
2022/12/18 03:12:24;;;;;;;37.13;17.08;;;;;;;-7.27;97.78;102793.59;5153341;27;20347;-79
2022/12/18 03:15:04;;;;;;;30.25;15.10;;;;;;;-7.27;97.72;102793.59;5134952;27;20037;-80
2022/12/18 03:17:33;;;;;;;37.90;15.63;;;;;;;-7.29;97.94;102794.22;5116418;27;20042;-79
2022/12/18 03:20:05;;;;;;;38.05;16.48;;;;;;;-7.30;97.83;102790.75;5134866;27;20019;-79
2022/12/18 03:22:34;;;;;;;31.65;15.50;;;;;;;-7.29;97.76;102786.50;5131948;27;20030;-79
2022/12/18 03:25:02;;;;;;;33.90;16.05;;;;;;;-7.30;98.36;102787.28;5126710;27;20017;-79
2022/12/18 03:27:31;;;;;;;31.85;16.05;;;;;;;-7.31;97.95;102791.53;5115570;27;20076;-79
2022/12/18 03:30:09;;;;;;;33.75;16.05;;;;;;;-7.32;97.32;102799.13;5135335;27;20030;-79
2022/12/18 03:32:47;;;;;;;29.02;15.00;;;;;;;-7.35;97.67;102795.53;5132519;27;20441;-79
2022/12/18 03:35:18;;;;;;;34.05;16.15;;;;;;;-7.37;97.71;102789.38;5132086;27;20031;-79
2022/12/18 03:37:44;;;;;;;;;;;;;;;-7.30;97.94;102797.59;5124134;27;20034;-74
2022/12/18 03:40:10;;;;;;;30.83;16.10;;;;;;;-7.34;98.23;102786.16;5091759;27;19911;-74
2022/12/18 03:42:48;;;;;;;28.38;14.32;;;;;;;-7.38;97.55;102784.97;5099237;27;20521;-74
2022/12/18 03:45:19;;;;;;;38.63;16.58;;;;;;;-7.40;97.47;102781.38;5110114;27;20159;-74
2022/12/18 03:48:00;;;;;;;25.95;14.07;;;;;;;-7.41;98.07;102787.31;5133228;27;20043;-74
2022/12/18 03:50:45;;;;;;;34.78;16.17;;;;;;;-7.42;97.84;102776.88;5115046;28;20492;-74
2022/12/18 03:53:48;;;;;;;34.17;16.75;;;;;;;-7.42;97.90;102767.50;5131388;27;20019;-74
2022/12/18 03:56:18;;;;;;;29.02;14.75;;;;;;;-7.42;98.01;102764.00;5134681;27;20027;-74
2022/12/18 03:58:45;;;;;;;31.35;14.95;;;;;;;-7.47;97.82;102763.63;5132896;27;20026;-74
2022/12/18 04:01:17;;;;;;;26.15;13.80;;;;;;;-7.44;98.06;102771.63;5125961;27;20023;-74
2022/12/18 04:03:46;;;;;;;33.75;15.98;;;;;;;-7.46;98.28;102760.31;5117676;27;20121;-74
2022/12/18 04:06:11;;;;;;;28.73;13.88;;;;;;;-7.46;98.25;102754.28;5133779;27;20022;-74
2022/12/18 04:08:40;;;;;;;30.65;14.07;;;;;;;-7.47;98.13;102748.19;5153337;27;20074;-74
2022/12/18 04:11:08;;;;;;;23.48;12.75;;;;;;;-7.46;98.39;102741.41;5134593;27;20038;-79
2022/12/18 04:13:36;;;;;;;30.13;13.35;;;;;;;-7.48;98.34;102736.13;5134905;27;20010;-79
2022/12/18 04:16:05;;;;;;;30.27;14.50;;;;;;;-7.50;98.05;102726.47;5135736;27;20027;-79
2022/12/18 04:18:31;;;;;;;29.38;13.48;;;;;;;-7.49;98.26;102738.56;5137599;27;20059;-79
2022/12/18 04:20:58;;;;;;;26.48;12.50;;;;;;;-7.48;98.25;102745.53;5133285;27;20030;-79
2022/12/18 04:23:24;;;;;;;26.33;12.82;;;;;;;-7.48;98.72;102738.69;5138312;27;20079;-79
2022/12/18 04:25:52;;;;;;;27.17;13.20;;;;;;;-7.49;98.61;102736.91;5137614;27;20041;-79
2022/12/18 04:28:30;;;;;;;29.98;14.73;;;;;;;-7.49;98.90;102731.75;5135052;27;20034;-79
2022/12/18 04:30:55;;;;;;;24.92;13.35;;;;;;;-7.51;98.12;102728.16;5138487;27;20039;-79
2022/12/18 04:33:21;;;;;;;34.58;14.10;;;;;;;-7.54;98.58;102727.00;5138355;27;20402;-79
2022/12/18 04:35:47;;;;;;;26.63;12.73;;;;;;;-7.49;98.20;102738.56;5118639;27;20031;-79
2022/12/18 04:38:13;;;;;;;25.75;12.82;;;;;;;-7.49;98.31;102741.13;5133399;27;20109;-79
2022/12/18 04:40:39;;;;;;;30.30;13.52;;;;;;;-7.47;98.06;102752.44;5136663;27;20172;-79
2022/12/18 04:43:11;;;;;;;25.70;14.15;;;;;;;-7.51;98.46;102748.75;5152906;27;20370;-79
2022/12/18 04:45:36;;;;;;;28.38;14.23;;;;;;;-7.48;97.91;102756.69;5156652;27;20023;-79
2022/12/18 04:48:03;;;;;;;28.38;14.75;;;;;;;-7.50;97.89;102757.34;5156572;27;20431;-79
2022/12/18 04:50:29;;;;;;;26.42;13.63;;;;;;;-7.53;97.29;102760.56;5156312;27;20035;-79
2022/12/18 04:52:55;;;;;;;23.25;12.43;;;;;;;-7.56;97.51;102760.34;5154199;27;20466;-79
2022/12/18 04:55:21;;;;;;;26.90;13.45;;;;;;;-7.55;97.70;102772.41;5135956;27;20079;-79
2022/12/18 04:57:46;;;;;;;24.55;12.10;;;;;;;-7.55;97.47;102771.50;5136198;27;20019;-79
2022/12/18 05:00:12;;;;;;;23.83;12.57;;;;;;;-7.56;97.79;102783.50;5152193;27;20054;-79
2022/12/18 05:02:38;;;;;;;26.67;12.35;;;;;;;-7.60;97.55;102774.59;5136614;27;20043;-79
2022/12/18 05:05:04;;;;;;;23.98;11.95;;;;;;;-7.60;97.29;102778.84;5139944;27;20480;-78
2022/12/18 05:07:30;;;;;;;30.83;14.10;;;;;;;-7.63;97.49;102778.59;5155401;27;20031;-78
2022/12/18 05:09:55;;;;;;;24.48;11.10;;;;;;;-7.64;97.54;102788.00;5122952;27;20084;-78
2022/12/18 05:12:21;;;;;;;24.15;11.15;;;;;;;-7.64;97.19;102792.22;5154169;27;20030;-79
2022/12/18 05:14:46;;;;;;;25.50;10.50;;;;;;;-7.63;96.87;102786.31;5137448;27;20029;-79
2022/12/18 05:17:12;;;;;;;21.55;11.98;;;;;;;-7.66;97.05;102786.97;5154367;27;20039;-78
2022/12/18 05:19:37;;;;;;;27.50;11.50;;;;;;;-7.67;97.50;102792.88;5149157;27;20026;-79
2022/12/18 05:22:03;;;;;;;20.83;10.77;;;;;;;-7.68;97.17;102798.81;5136436;27;20026;-79
2022/12/18 05:24:28;;;;;;;20.67;10.98;;;;;;;-7.70;96.89;102790.06;5137268;27;20030;-79
2022/12/18 05:26:54;;;;;;;22.10;11.27;;;;;;;-7.68;97.31;102782.47;5155458;27;20031;-79
2022/12/18 05:29:19;;;;;;;23.13;11.18;;;;;;;-7.71;97.03;102779.66;5119931;27;20026;-79
2022/12/18 05:31:44;;;;;;;21.48;10.15;;;;;;;-7.72;96.92;102771.00;5120216;27;20038;-79
2022/12/18 05:34:10;;;;;;;17.45;10.23;;;;;;;-7.73;96.72;102774.38;5136800;27;20031;-74
2022/12/18 05:36:35;;;;;;;23.80;12.27;;;;;;;-7.73;97.35;102776.06;5134528;27;20057;-74
2022/12/18 05:39:01;;;;;;;25.10;11.32;;;;;;;-7.72;97.50;102781.31;5112508;27;20027;-74
2022/12/18 05:41:27;;;;;;;25.58;12.32;;;;;;;-7.73;97.42;102779.50;5133304;27;20042;-74
2022/12/18 05:43:52;;;;;;;21.63;10.85;;;;;;;-7.71;97.05;102772.84;5133940;27;20038;-74
2022/12/18 05:46:18;;;;;;;24.25;11.90;;;;;;;-7.71;96.91;102765.13;5153212;27;20011;-74
2022/12/18 05:48:44;;;;;;;19.10;10.32;;;;;;;-7.70;97.23;102763.44;5155453;27;20437;-74
2022/12/18 05:51:15;;;;;;;22.15;10.88;;;;;;;-7.70;96.91;102756.63;5136204;27;20026;-74
2022/12/18 05:53:41;;;;;;;;;;;;;;;-7.68;97.39;102755.06;5156120;27;20486;-74
2022/12/18 05:56:10;;;;;;;20.88;10.63;;;;;;;-7.70;97.24;102748.88;5134519;27;19926;-74
2022/12/18 05:58:36;;;;;;;19.83;10.38;;;;;;;-7.70;97.14;102745.44;5137170;27;20045;-74
2022/12/18 06:01:11;;;;;;;21.05;9.82;;;;;;;-7.68;97.05;102746.47;5134992;27;20042;-74
2022/12/18 06:03:37;;;;;;;27.05;12.65;;;;;;;-7.70;96.71;102748.00;5122464;27;20386;-74
2022/12/18 06:06:02;;;;;;;22.88;10.32;;;;;;;-7.70;96.66;102756.63;5136414;27;20046;-74
2022/12/18 06:08:28;;;;;;;30.67;11.45;;;;;;;-7.70;97.23;102743.75;5144237;27;20130;-74
2022/12/18 06:10:54;;;;;;;22.17;11.13;;;;;;;-7.69;96.94;102752.34;5126577;27;20026;-74
2022/12/18 06:13:19;;;;;;;26.48;12.02;;;;;;;-7.71;97.12;102736.81;5139642;27;20038;-74
2022/12/18 06:15:45;;;;;;;16.48;10.00;;;;;;;-7.71;96.91;102733.34;5104007;27;20068;-73
2022/12/18 06:18:11;;;;;;;20.27;11.80;;;;;;;-7.70;97.59;102733.47;5129029;27;20153;-74
2022/12/18 06:20:39;;;;;;;23.15;11.77;;;;;;;-7.70;97.21;102738.59;5142165;27;20019;-74
2022/12/18 06:23:05;;;;;;;29.13;11.73;;;;;;;-7.68;97.64;102743.88;5099259;27;20498;-74
2022/12/18 06:25:32;;;;;;;20.02;10.52;;;;;;;-7.69;97.16;102752.34;5119164;27;20118;-74
2022/12/18 06:27:57;;;;;;;20.27;10.30;;;;;;;-7.68;97.65;102756.75;5126229;27;20534;-74
2022/12/18 06:30:23;;;;;;;19.90;10.43;;;;;;;-7.67;97.72;102758.53;5131179;27;20152;-74
2022/12/18 06:32:49;;;;;;;22.88;12.77;;;;;;;-7.70;97.68;102758.28;5155099;27;20075;-74
2022/12/18 06:35:15;;;;;;;22.73;12.48;;;;;;;-7.70;97.48;102756.63;5134107;27;20039;-74
2022/12/18 06:37:40;;;;;;;19.67;10.77;;;;;;;-7.68;97.60;102744.78;5132873;27;20039;-74
2022/12/18 06:40:06;;;;;;;26.58;11.88;;;;;;;-7.71;97.27;102744.53;5135022;27;20170;-74
2022/12/18 06:42:33;;;;;;;21.30;10.80;;;;;;;-7.72;97.61;102742.72;5114354;27;20502;-74
2022/12/18 06:44:59;;;;;;;21.27;11.02;;;;;;;-7.75;97.56;102734.75;5133632;27;20071;-74
2022/12/18 06:47:24;;;;;;;24.20;12.35;;;;;;;-7.74;97.34;102731.41;5153949;27;20047;-74
2022/12/18 06:49:50;;;;;;;23.02;11.93;;;;;;;-7.74;97.37;102727.94;5132598;27;20121;-74
2022/12/18 06:52:15;;;;;;;23.77;12.25;;;;;;;-7.76;97.27;102725.25;5118906;27;20413;-74
2022/12/18 06:54:40;;;;;;;23.20;12.35;;;;;;;-7.75;97.41;102726.16;5154823;27;20107;-75
2022/12/18 06:57:06;;;;;;;20.98;11.63;;;;;;;-7.77;97.55;102733.72;5136379;27;20487;-74
2022/12/18 06:59:32;;;;;;;19.83;9.77;;;;;;;-7.80;97.37;102724.09;5128351;27;20448;-74
2022/12/18 07:01:58;;;;;;;18.50;10.75;;;;;;;-7.77;97.43;102728.56;5133159;27;20466;-74
2022/12/18 07:04:30;;;;;;;22.40;10.38;;;;;;;-7.78;97.22;102729.38;5115799;27;20067;-75
2022/12/18 07:06:55;;;;;;;28.50;12.55;;;;;;;-7.80;97.48;102728.34;5130685;27;20035;-74
2022/12/18 07:09:21;;;;;;;24.90;11.40;;;;;;;-7.87;97.56;102715.75;5124033;27;20121;-78
2022/12/18 07:11:46;;;;;;;19.70;11.50;;;;;;;-7.84;97.66;102711.75;5152443;27;20031;-78
2022/12/18 07:14:12;;;;;;;21.42;10.98;;;;;;;-7.84;97.36;102704.06;5117130;27;20030;-78
2022/12/18 07:16:37;;;;;;;20.25;11.20;;;;;;;-7.84;98.00;102705.69;5134221;27;20027;-78
2022/12/18 07:19:03;;;;;;;25.45;12.15;;;;;;;-7.82;97.85;102701.59;5118411;27;20191;-78
2022/12/18 07:21:28;;;;;;;21.75;11.50;;;;;;;-7.81;98.15;102700.84;5135414;27;20027;-78
2022/12/18 07:23:53;;;;;;;21.05;10.82;;;;;;;-7.82;98.19;102692.19;5153951;27;20117;-78
2022/12/18 07:26:21;;;;;;;22.33;11.30;;;;;;;-7.78;98.15;102690.78;5151204;27;20031;-79
2022/12/18 07:28:47;;;;;;;21.98;11.73;;;;;;;-7.77;97.82;102682.28;5152441;27;20123;-79
2022/12/18 07:31:16;;;;;;;24.98;13.00;;;;;;;-7.76;97.93;102678.03;5154074;27;20489;-77
2022/12/18 07:33:41;;;;;;;21.35;11.18;;;;;;;-7.76;98.09;102672.88;5153964;27;20039;-78
2022/12/18 07:36:09;;;;;;;23.63;13.23;;;;;;;-7.78;97.59;102667.63;5150601;27;20527;-77
2022/12/18 07:38:35;;;;;;;25.00;12.90;;;;;;;-7.76;98.16;102671.25;5153805;27;20042;-78
2022/12/18 07:41:05;;;;;;;24.55;11.10;;;;;;;-7.75;98.09;102672.13;5153643;27;20026;-78
2022/12/18 07:43:31;;;;;;;22.25;12.77;;;;;;;-7.75;98.16;102659.28;5132061;27;20035;-78
2022/12/18 07:45:56;;;;;;;21.92;11.70;;;;;;;-7.73;98.33;102650.91;5134500;27;20021;-78
2022/12/18 07:48:22;;;;;;;22.77;12.38;;;;;;;-7.70;98.10;102655.41;5147968;27;20059;-77
2022/12/18 07:50:47;;;;;;;23.30;11.20;;;;;;;-7.69;98.31;102642.66;5151144;27;20398;-78
2022/12/18 07:53:14;;;;;;;20.67;11.75;;;;;;;-7.70;98.28;102629.66;5134668;27;20062;-78
2022/12/18 07:55:41;;;;;;;23.77;11.80;;;;;;;-7.64;98.55;102622.44;5133625;27;20414;-78
2022/12/18 07:58:07;;;;;;;26.55;12.15;;;;;;;-7.59;98.89;102626.25;5153439;27;20046;-78
2022/12/18 08:00:33;;;;;;;19.70;11.57;;;;;;;-7.54;98.97;102629.22;5113171;27;20019;-78
2022/12/18 08:02:59;;;;;;;25.17;13.40;;;;;;;-7.55;99.11;102628.31;5148361;27;20030;-79
2022/12/18 08:05:25;;;;;;;28.63;11.32;;;;;;;-7.49;98.80;102633.97;5132243;27;20038;-78
2022/12/18 08:07:51;;;;;;;26.13;13.50;;;;;;;-7.44;99.12;102642.97;5150743;27;20019;-78
2022/12/18 08:10:17;;;;;;;26.70;13.63;;;;;;;-7.40;99.21;102631.22;5151857;27;20041;-78
2022/12/18 08:12:43;;;;;;;22.40;11.95;;;;;;;-7.35;99.29;102643.66;5125828;27;20027;-79
2022/12/18 08:15:08;;;;;;;28.88;15.73;;;;;;;-7.29;98.78;102643.28;5152814;27;20432;-78
2022/12/18 08:17:34;;;;;;;23.30;11.57;;;;;;;-7.24;99.31;102646.22;5148052;27;20123;-78
2022/12/18 08:20:00;;;;;;;20.92;10.40;;;;;;;-7.21;99.22;102647.34;5149295;27;20052;-78
2022/12/18 08:22:25;;;;;;;25.98;12.55;;;;;;;-7.21;99.07;102644.78;5118247;27;20103;-78
2022/12/18 08:24:51;;;;;;;18.20;10.75;;;;;;;-7.19;98.48;102653.53;5097679;27;20042;-78
2022/12/18 08:27:17;;;;;;;20.30;11.80;;;;;;;-7.16;99.25;102656.31;5146596;27;20049;-78
2022/12/18 08:29:43;;;;;;;20.92;10.45;;;;;;;-7.15;99.40;102652.06;5144244;27;20031;-78
2022/12/18 08:32:08;;;;;;;20.10;12.38;;;;;;;-7.11;99.41;102642.94;5099577;27;20497;-78
2022/12/18 08:34:34;;;;;;;27.02;13.23;;;;;;;-7.05;99.54;102644.28;5128260;28;20035;-79
2022/12/18 08:36:59;;;;;;;26.45;12.77;;;;;;;-7.03;99.42;102639.25;5111905;27;20022;-79
2022/12/18 08:39:25;;;;;;;24.83;12.35;;;;;;;-6.97;99.79;102637.19;5140550;27;20171;-78
2022/12/18 08:44:37;;;;;;;24.58;12.13;;;;;;;-6.85;99.66;102630.38;5128164;27;20439;-79
2022/12/18 08:47:02;;;;;;;22.27;11.80;;;;;;;-6.78;99.93;102624.03;5126586;27;20525;-78
2022/12/18 08:49:28;;;;;;;28.23;13.25;;;;;;;-6.72;99.86;102619.34;5151450;27;20030;-78
2022/12/18 08:51:57;;;;;;;24.05;12.45;;;;;;;-6.65;99.74;102608.75;5128353;27;20505;-78
2022/12/18 08:54:23;;;;;;;25.23;11.45;;;;;;;-6.59;100.00;102608.31;5115215;27;20035;-78
2022/12/18 08:56:51;;;;;;;20.77;11.45;;;;;;;-6.50;99.96;102611.59;5120320;27;20083;-79
2022/12/18 08:59:18;;;;;;;21.50;11.68;;;;;;;-6.42;100.00;102619.91;5107059;28;20043;-78
2022/12/18 09:01:44;;;;;;;23.55;12.57;;;;;;;-6.36;99.89;102610.91;5110284;27;20118;-78
2022/12/18 09:04:10;;;;;;;23.50;12.45;;;;;;;-6.30;99.91;102613.09;5130743;27;20044;-79
2022/12/18 09:06:36;;;;;;;27.80;14.50;;;;;;;-6.22;100.00;102613.66;5108510;27;20114;-79
2022/12/18 09:09:03;;;;;;;22.70;11.32;;;;;;;-6.17;99.82;102613.19;5152730;27;20035;-79
2022/12/18 09:11:29;;;;;;;25.55;13.82;;;;;;;-6.12;99.61;102627.34;5123465;27;20030;-79
2022/12/18 09:13:55;;;;;;;26.92;13.05;;;;;;;-6.04;99.82;102625.31;5144923;27;20035;-79
2022/12/18 09:16:24;;;;;;;27.08;13.52;;;;;;;-5.98;99.80;102615.47;5136563;27;20027;-78
2022/12/18 09:18:49;;;;;;;22.20;12.07;;;;;;;-5.93;99.79;102623.50;5149189;27;20114;-79
2022/12/18 09:21:20;;;;;;;23.33;12.70;;;;;;;-5.84;99.80;102643.13;5155871;27;20075;-79
2022/12/18 09:23:50;;;;;;;30.35;14.43;;;;;;;-5.79;99.73;102640.88;5135484;27;20046;-79
2022/12/18 09:26:16;;;;;;;25.38;13.35;;;;;;;-5.74;99.36;102649.84;5136022;27;20035;-79
2022/12/18 09:28:41;;;;;;;26.95;13.60;;;;;;;-5.68;99.52;102657.16;5132479;27;20079;-79
2022/12/18 09:31:08;;;;;;;23.50;12.45;;;;;;;-5.64;99.14;102635.94;5135889;27;20047;-79
2022/12/18 09:33:35;;;;;;;24.58;13.57;;;;;;;-5.59;99.46;102637.16;5135699;27;20026;-79
2022/12/18 09:36:03;;;;;;;27.27;13.50;;;;;;;-5.55;99.15;102631.44;5131830;27;20027;-79
2022/12/18 09:38:29;;;;;;;25.23;11.40;;;;;;;-5.48;99.51;102619.88;5144290;27;20113;-79
2022/12/18 09:41:05;;;;;;;27.27;14.23;;;;;;;-5.43;99.55;102611.66;5134779;27;20098;-79
2022/12/18 09:43:40;;;;;;;26.38;13.73;;;;;;;-5.37;99.07;102595.72;5151131;27;20054;-79
2022/12/18 09:46:14;;;;;;;25.05;11.88;;;;;;;-5.32;99.28;102591.75;5151189;27;20148;-80
2022/12/18 09:48:43;;;;;;;31.35;15.45;;;;;;;-5.26;99.52;102596.50;5146985;27;20497;-79
2022/12/18 09:51:19;;;;;;;24.02;12.38;;;;;;;-5.19;99.51;102596.13;5141682;27;20106;-79
2022/12/18 09:53:50;;;;;;;23.55;12.98;;;;;;;-5.13;99.42;102586.22;5156341;27;20039;-79
2022/12/18 09:56:22;;;;;;;28.45;14.20;;;;;;;-5.04;99.70;102580.81;5118968;27;20126;-79
2022/12/18 09:58:59;;;;;;;30.30;14.75;;;;;;;-4.98;99.10;102573.47;5117629;27;20468;-79
2022/12/18 10:01:26;;;;;;;24.27;12.43;;;;;;;-4.91;99.12;102575.69;5133866;27;20490;-79
2022/12/18 10:03:53;;;;;;;22.58;12.85;;;;;;;-4.84;98.70;102580.47;5127036;27;20110;-79
2022/12/18 10:06:52;;;;;;;27.65;13.98;;;;;;;-4.76;98.82;102591.34;5135681;27;20046;-80
2022/12/18 10:09:23;;;;;;;30.73;15.55;;;;;;;-4.68;98.68;102597.91;5130961;27;20133;-79
2022/12/18 10:11:55;;;;;;;21.80;12.25;;;;;;;-4.62;99.07;102595.78;5123282;27;20045;-80
2022/12/18 10:14:36;;;;;;;28.48;13.88;;;;;;;-4.53;98.98;102587.72;5142545;27;20416;-79
2022/12/18 10:17:21;;;;;;;36.15;14.07;;;;;;;-4.47;98.03;102584.69;5117098;27;20114;-79
2022/12/18 10:19:55;;;;;;;28.02;13.30;;;;;;;-4.44;97.79;102584.88;5150024;27;20121;-79
2022/12/18 10:23:01;;;;;;;21.63;12.57;;;;;;;-4.36;97.86;102581.09;5135823;27;20057;-79
2022/12/18 10:25:59;;;;;;;25.50;12.80;;;;;;;-4.30;97.90;102589.28;5135311;27;20095;-80
2022/12/18 10:28:26;;;;;;;23.38;13.02;;;;;;;-4.26;98.25;102578.31;5120766;27;20110;-79
2022/12/18 10:30:52;;;;;;;29.38;13.80;;;;;;;-4.19;97.85;102579.63;5130731;27;20030;-80
2022/12/18 10:33:23;;;;;;;24.90;13.35;;;;;;;-4.17;97.87;102563.41;5116462;27;20043;-80
2022/12/18 10:35:52;;;;;;;25.85;12.88;;;;;;;-4.09;97.58;102561.31;5149000;27;20035;-80
2022/12/18 10:38:18;;;;;;;27.42;14.30;;;;;;;-4.04;97.84;102552.16;5154502;27;20027;-80
2022/12/18 10:40:53;;;;;;;28.42;13.95;;;;;;;-3.99;97.70;102544.72;5138460;27;20570;-80
2022/12/18 10:43:41;;;;;;;26.88;13.93;;;;;;;-3.92;97.47;102532.25;5145845;27;20031;-80
2022/12/18 10:46:09;;;;;;;26.20;14.57;;;;;;;-3.85;97.24;102524.91;5114434;27;20039;-80
2022/12/18 10:48:47;;;;;;;23.45;12.70;;;;;;;-3.78;97.11;102527.97;5145014;27;20041;-80
2022/12/18 10:51:27;;;;;;;23.92;13.13;;;;;;;-3.74;96.86;102524.75;5131914;27;20034;-80
2022/12/18 10:53:55;;;;;;;28.75;14.05;;;;;;;-3.68;96.98;102517.41;5134422;27;20042;-80
2022/12/18 10:56:21;;;;;;;22.48;13.18;;;;;;;-3.61;97.04;102510.00;5134154;27;20119;-80
2022/12/18 10:59:03;;;;;;;27.08;13.77;;;;;;;-3.59;96.53;102509.28;5134322;27;20055;-81
2022/12/18 11:01:55;;;;;;;28.27;14.75;;;;;;;-3.52;96.48;102505.41;5127078;27;20038;-80
2022/12/18 11:04:22;;;;;;;;;;;;;;;-3.47;97.40;102503.97;5134718;27;20092;-80
2022/12/18 11:07:00;;;;;;;25.27;14.57;;;;;;;-3.46;95.81;102500.63;5098616;27;19914;-81
2022/12/18 11:09:32;;;;;;;23.50;13.32;;;;;;;-3.43;96.04;102497.31;5115720;27;20067;-80
2022/12/18 11:12:03;;;;;;;27.27;14.52;;;;;;;-3.39;96.11;102502.75;5136581;27;20108;-80
2022/12/18 11:14:33;;;;;;;23.35;13.07;;;;;;;-3.36;95.79;102504.63;5116887;27;20122;-80
2022/12/18 11:17:00;;;;;;;29.33;14.48;;;;;;;-3.34;96.21;102503.03;5141363;27;20031;-80
2022/12/18 11:19:36;;;;;;;23.08;13.45;;;;;;;-3.27;96.04;102503.50;5142056;27;20031;-81
2022/12/18 11:22:19;;;;;;;25.33;13.20;;;;;;;-3.24;95.41;102507.97;5115694;27;20110;-80
2022/12/18 11:25:11;;;;;;;20.30;12.68;;;;;;;-3.20;94.97;102499.59;5133795;27;20067;-80